Relevés horaires Matro (Suisse)


Relevés horaires à Matro - Jeudi 14 Janv. 2021
Heure UTC1 Température [°C] Vent [km/h] Hum. [%] Pres.4 [hPa] Visi. [Km] Nébu. [octa] Préc.5 [mm] Cond.
2m. Res. Ros. Dir.2 Vit. Moy. Raf.3
23:00 -5.5 -12.3 -5.5 S 20.4 -- 29.6 100 850(-0.2/3h) -- -- -- --
22:00 -4.9 -8.3 -5.3 SSE 7.4 -- 20.4 97 850(0.0/3h) -- -- -- --
21:00 -3.7 -8 -5.5 ONO 11.1 -- 25.9 87 850(0.1/3h) -- -- -- --
20:00 -3.8 -8.2 -6.1 NO 11.1 -- 25.9 84 850(0.7/3h) -- -- -- --
19:00 -3.5 -9.1 -6.8 ONO 16.7 -- 22.2 78 850(1.3/3h) -- -- -- --
18:00 -3.7 -9.3 -6.8 NNO 16.7 -- 74.1 79 850(1.7/3h) -- -- -- --
17:00 -3.2 -9.3 -6.0 NNO 20.4 -- 61.1 81 850(0.6/3h) -- -- -- --
16:00 -4.0 -13.1 -6.7 NNO 44.4 -- 70.4 81 850(-0.4/3h) -- -- -- --
15:00 -4.3 -14.3 -5.7 NNO 53.7 -- 74.1 90 850(-0.9/3h) -- -- -- --
14:00 -3.3 -11.9 -3.8 NNO 40.7 -- 57.4 96 850(-0.5/3h) -- -- -- --
13:00 -2.8 -10.1 -4.1 NNO 29.6 -- 40.7 91 850(-0.2/3h) -- -- -- --
12:00 -2.8 -9.1 -4.9 NNO 22.2 -- 66.7 85 850(0.6/3h) -- -- -- --
11:00 -2.2 -8.4 -4.7 NO 22.2 -- 38.9 83 850(1.0/3h) -- -- -- --
10:00 -2.3 -9.2 -4.5 NO 27.8 -- 61.1 85 850(1.2/3h) -- -- -- --
09:00 -1.8 -9.2 -3.1 NO 33.3 -- 66.7 91 850(0.7/3h) -- -- -- --
08:00 -0.8 -7.9 -2.0 NO 33.3 -- 61.1 92 850(0.6/3h) -- -- -- --
07:00 -0.9 -8 -2.2 NO 33.3 -- 66.7 91 850(-0.7/3h) -- -- -- --
06:00 -0.8 -8.5 -1.8 NO 40.7 -- 96.3 93 850(-1.7/3h) -- -- -- --
05:00 -2.8 -12.4 -4.1 NO 55.6 -- 96.3 91 850(-2.2/3h) -- -- -- --
04:00 -3.2 -12.9 -3.2 NNO 55.6 -- 72.2 100 850(-1.1/3h) -- -- -- --
03:00 -3.4 -12.8 -3.4 NNO 50.0 -- 72.2 100 850(-0.9/3h) -- -- -- --
02:00 -3.5 -12.6 -4.0 NNO 46.3 -- 72.2 96 850(-1.4/3h) -- -- -- --
01:00 -3.7 -13 -4.3 NO 48.2 -- 70.4 96 850(-1.6/3h) -- -- -- --
00:00 -3.6 -12.1 -4.4 NO 38.9 -- 70.4 94 850(-1.3/3h) -- -- -- --

1 Coordinated Universal Time. Actuellement il est 08:00 locale et 06:00 UTC.

2 Le vent souffle depuis la direction indiquée vers la direction oposée.

3 Les rafales max. sont disponible 40 min après l'heure du relevé.

4 Pour les stations d'altitude (plus de 600m) le géopotentiel du niveau le plus proche de la pression obligatoire est indiqué.

5 Les stations disposant d'un diffuseur peuvent indiquer "trace". Cela signifie que des précipitations ont touchés le sol mais que la quantité est inférieure à 0.1 mm.

Copyright

Les données affichées sur cette page sont la propriété exclusive de Météo Suisse.

Récapitulatif de la journée
Température [°C] Vent [km/h] Ensoleillement4 [h] Precipitations totale5 [mm] Pression [Hpa]
Min1 Max.2 Moy.3 Max. Min Max.
-7.1 -0.5 0 96.3 0 h 42 min 0 850.0 850.0

1 Température minimale relevée entre 18:00 UTC la veille et 18:00 UTC le jour donné.

2 Température maximale relevée entre 06:00 UTC le jour donné et 06:00 UTC le lendemain.

3 Vent moyen de la journée basé sur les relevés horaires.

4 Ensoleillement en heures relevé entre 06:00 UTC la veille et 06:00 UTC le jour donné.

5 Précipitations totales tombées entre 06:00 UTC la jour donné et 06:00 UTC le lendemain.

Graphiques horaires